createdAt,value
2023-07-31T00:01:16.273Z,60.68
2023-07-31T00:06:17.820Z,60.88
2023-07-31T00:11:19.305Z,60.89
2023-07-31T00:16:20.984Z,60.71
2023-07-31T00:21:22.528Z,61.05
2023-07-31T00:26:23.989Z,60.73
2023-07-31T00:31:25.623Z,60.62
2023-07-31T00:36:27.126Z,60.67
2023-07-31T00:41:28.595Z,61.05
2023-07-31T00:46:30.117Z,60.78
2023-07-31T00:51:31.695Z,60.99
2023-07-31T00:56:33.398Z,61.15
2023-07-31T01:01:34.923Z,60.69
2023-07-31T01:06:56.179Z,60.79
2023-07-31T01:12:01.540Z,61.09
2023-07-31T01:17:03.126Z,61.22
2023-07-31T01:22:36.523Z,60.79
2023-07-31T01:27:52.887Z,60.93
2023-07-31T01:32:57.186Z,61.39
2023-07-31T01:37:58.684Z,60.98
2023-07-31T01:43:00.189Z,61.03
2023-07-31T01:48:01.649Z,61.57
2023-07-31T01:53:03.367Z,61.18
2023-07-31T01:58:04.910Z,61.25
2023-07-31T02:03:06.491Z,61.54
2023-07-31T02:08:08.050Z,61.93
2023-07-31T02:13:09.674Z,61.63
2023-07-31T02:18:11.144Z,61.60
2023-07-31T02:23:12.845Z,61.79
2023-07-31T02:28:14.336Z,61.94
2023-07-31T02:33:17.345Z,61.74
2023-07-31T02:38:18.871Z,62.04
2023-07-31T02:43:20.336Z,62.37
2023-07-31T02:48:21.870Z,62.46
2023-07-31T02:53:24.209Z,61.68
2023-07-31T02:58:25.772Z,61.98
2023-07-31T03:03:27.482Z,62.47
2023-07-31T03:08:29.022Z,62.59
2023-07-31T03:13:30.584Z,62.69
2023-07-31T03:18:32.099Z,62.70
2023-07-31T03:23:33.627Z,63.22
2023-07-31T03:28:35.351Z,63.07
2023-07-31T03:33:36.809Z,62.95
2023-07-31T03:38:38.296Z,63.64
2023-07-31T03:43:39.750Z,63.58
2023-07-31T03:48:41.273Z,64.21
2023-07-31T03:53:42.760Z,64.02
2023-07-31T03:58:44.267Z,64.14
2023-07-31T04:03:45.747Z,64.35
2023-07-31T04:08:47.192Z,64.08
2023-07-31T04:13:48.653Z,64.30
2023-07-31T04:18:50.240Z,63.61
2023-07-31T04:23:51.802Z,64.28
2023-07-31T04:28:53.364Z,64.48
2023-07-31T04:33:54.809Z,64.94
2023-07-31T04:38:56.786Z,65.87
2023-07-31T04:43:58.432Z,66.34
2023-07-31T04:48:59.973Z,66.21
2023-07-31T04:54:01.521Z,66.70
2023-07-31T04:59:02.957Z,66.25
2023-07-31T05:04:04.669Z,65.94
2023-07-31T05:09:06.237Z,65.92
2023-07-31T05:14:08.694Z,65.88
2023-07-31T05:19:10.197Z,65.93
2023-07-31T05:24:11.967Z,65.58
2023-07-31T05:29:13.449Z,65.92
2023-07-31T05:34:14.946Z,65.75
2023-07-31T05:39:16.482Z,65.85
2023-07-31T05:44:18.043Z,65.99
2023-07-31T05:49:19.568Z,66.52
2023-07-31T05:54:21.055Z,66.87
2023-07-31T05:59:22.532Z,65.51
2023-07-31T06:04:26.552Z,66.17
2023-07-31T06:09:28.207Z,66.07
2023-07-31T06:14:29.666Z,65.88
2023-07-31T06:19:31.141Z,65.85
2023-07-31T06:24:32.638Z,65.68
2023-07-31T06:29:34.153Z,65.74
2023-07-31T06:34:35.613Z,64.96
2023-07-31T06:39:37.157Z,65.19
2023-07-31T06:44:38.635Z,64.91
2023-07-31T06:49:40.142Z,64.90
2023-07-31T06:54:41.570Z,64.68
2023-07-31T06:59:43.004Z,63.29
2023-07-31T07:04:44.485Z,63.44
2023-07-31T07:09:45.945Z,63.77
2023-07-31T07:14:48.843Z,63.40
2023-07-31T07:19:50.402Z,62.65
2023-07-31T07:24:51.973Z,62.19
2023-07-31T07:29:53.896Z,61.31
2023-07-31T07:34:56.571Z,60.17
2023-07-31T07:39:58.594Z,59.97
2023-07-31T07:45:00.107Z,59.85
2023-07-31T07:50:01.658Z,58.44
2023-07-31T07:55:04.706Z,57.08
2023-07-31T08:00:07.159Z,58.02
2023-07-31T08:05:09.267Z,58.61
2023-07-31T08:10:10.870Z,56.80
2023-07-31T08:15:12.394Z,57.93
2023-07-31T08:20:13.909Z,58.14
2023-07-31T08:25:15.403Z,57.31
2023-07-31T08:30:16.872Z,57.35
2023-07-31T08:35:18.394Z,57.67
2023-07-31T08:40:20.040Z,57.26
2023-07-31T08:45:21.551Z,57.07
2023-07-31T08:50:23.068Z,55.18
2023-07-31T08:55:25.521Z,54.30
2023-07-31T09:00:28.033Z,54.86
2023-07-31T09:05:31.720Z,54.09
2023-07-31T09:10:33.181Z,53.89
2023-07-31T09:15:38.240Z,52.95
2023-07-31T09:20:39.949Z,51.59
2023-07-31T09:25:45.456Z,51.35
2023-07-31T09:30:48.369Z,49.63
2023-07-31T09:35:49.927Z,50.17
2023-07-31T09:40:52.017Z,50.56
2023-07-31T09:45:58.018Z,50.26
2023-07-31T09:51:05.713Z,48.73
2023-07-31T09:56:07.369Z,49.73
2023-07-31T10:01:09.705Z,49.11
2023-07-31T10:06:11.719Z,49.45
2023-07-31T10:11:15.298Z,49.12
2023-07-31T10:16:17.874Z,48.59
2023-07-31T10:21:19.529Z,48.21
2023-07-31T10:26:24.278Z,47.69
2023-07-31T10:31:26.315Z,47.60
2023-07-31T10:36:28.212Z,47.26
2023-07-31T10:41:34.183Z,45.56
2023-07-31T10:46:36.063Z,45.98
2023-07-31T10:51:37.725Z,46.41
2023-07-31T10:56:40.293Z,45.39
2023-07-31T11:01:58.055Z,46.06
2023-07-31T11:07:02.563Z,45.56
2023-07-31T11:12:04.376Z,45.63
2023-07-31T11:17:09.231Z,46.06
2023-07-31T11:22:11.577Z,45.61
2023-07-31T11:27:13.022Z,44.81
2023-07-31T11:32:18.979Z,45.34
2023-07-31T11:37:20.978Z,44.16
2023-07-31T11:42:23.040Z,43.40
2023-07-31T11:47:27.180Z,44.66
2023-07-31T11:52:32.297Z,45.17
2023-07-31T11:57:34.234Z,44.80
2023-07-31T12:02:36.245Z,45.57
2023-07-31T12:07:52.126Z,45.51
2023-07-31T12:12:58.198Z,46.16
2023-07-31T12:18:00.012Z,46.32
2023-07-31T12:23:01.789Z,46.91
2023-07-31T12:28:12.977Z,47.49
2023-07-31T12:33:16.080Z,48.30
2023-07-31T12:38:17.603Z,48.79
2023-07-31T12:43:19.081Z,48.76
2023-07-31T12:48:20.683Z,47.75
2023-07-31T12:53:22.160Z,48.00
2023-07-31T12:58:24.014Z,48.47
2023-07-31T13:03:25.606Z,48.52
2023-07-31T13:08:27.157Z,48.79
2023-07-31T13:13:30.488Z,48.86
2023-07-31T13:18:32.133Z,48.94
2023-07-31T13:23:33.631Z,49.16
2023-07-31T13:28:35.227Z,49.02
2023-07-31T13:33:38.794Z,49.45
2023-07-31T13:38:41.009Z,49.73
2023-07-31T13:43:42.447Z,50.28
2023-07-31T13:48:43.926Z,51.78
2023-07-31T13:53:45.374Z,52.47
2023-07-31T13:58:46.820Z,52.70
2023-07-31T14:03:48.311Z,53.28
2023-07-31T14:08:49.808Z,53.86
2023-07-31T14:13:52.133Z,54.01
2023-07-31T14:18:55.023Z,54.24
2023-07-31T14:23:56.814Z,54.43
2023-07-31T14:28:58.306Z,54.43
2023-07-31T14:33:59.756Z,53.12
2023-07-31T14:39:01.239Z,52.88
2023-07-31T14:44:02.748Z,52.82
2023-07-31T14:49:04.270Z,52.90
2023-07-31T14:54:05.816Z,52.80
2023-07-31T14:59:09.119Z,52.87
2023-07-31T15:04:10.671Z,53.08
2023-07-31T15:09:12.230Z,52.24
2023-07-31T15:14:16.250Z,52.61
2023-07-31T15:19:18.741Z,52.81
2023-07-31T15:24:21.517Z,52.70
2023-07-31T15:29:23.073Z,52.75
2023-07-31T15:34:25.705Z,52.93
2023-07-31T15:39:27.199Z,53.11
2023-07-31T15:44:28.956Z,53.22
2023-07-31T15:49:30.401Z,53.50
2023-07-31T15:54:33.024Z,53.41
2023-07-31T15:59:34.458Z,54.19
2023-07-31T16:04:38.315Z,53.74
2023-07-31T16:09:39.842Z,53.82
2023-07-31T16:14:41.668Z,53.79
2023-07-31T16:19:43.144Z,53.92
2023-07-31T16:24:44.707Z,53.41
2023-07-31T16:29:49.232Z,53.66
2023-07-31T16:34:50.739Z,53.71
2023-07-31T16:39:55.153Z,53.69
2023-07-31T16:44:56.600Z,53.58
2023-07-31T16:49:58.171Z,53.83
2023-07-31T16:54:59.728Z,53.82
2023-07-31T17:00:01.267Z,53.75
2023-07-31T17:05:02.886Z,53.92
2023-07-31T17:10:04.762Z,54.21
2023-07-31T17:15:06.991Z,53.98
2023-07-31T17:20:09.199Z,54.66
2023-07-31T17:25:10.770Z,54.47
2023-07-31T17:30:12.662Z,54.72
2023-07-31T17:35:14.309Z,54.75
2023-07-31T17:40:15.996Z,54.91
2023-07-31T17:45:20.063Z,55.00
2023-07-31T17:50:21.487Z,54.91
2023-07-31T17:55:22.939Z,54.94
2023-07-31T18:00:24.448Z,55.26
2023-07-31T18:05:27.017Z,55.13
2023-07-31T18:10:28.551Z,55.08
2023-07-31T18:15:30.045Z,55.46
2023-07-31T18:20:31.483Z,55.35
2023-07-31T18:25:32.965Z,55.50
2023-07-31T18:30:34.483Z,55.56
2023-07-31T18:35:39.858Z,56.01
2023-07-31T18:40:41.350Z,56.57
2023-07-31T18:45:42.825Z,56.56
2023-07-31T18:50:44.656Z,56.81
2023-07-31T18:55:46.173Z,56.90
2023-07-31T19:00:48.105Z,56.84
2023-07-31T19:05:50.433Z,57.11
2023-07-31T19:10:51.906Z,57.22
2023-07-31T19:15:54.930Z,57.37
2023-07-31T19:20:56.664Z,57.57
2023-07-31T19:25:58.176Z,57.90
2023-07-31T19:31:00.254Z,57.96
2023-07-31T19:36:01.785Z,57.91
2023-07-31T19:41:03.420Z,58.20
2023-07-31T19:46:04.933Z,57.98
2023-07-31T19:51:06.791Z,58.69
2023-07-31T19:56:08.339Z,58.61
2023-07-31T20:01:10.801Z,58.92
2023-07-31T20:06:12.367Z,59.31
2023-07-31T20:11:13.855Z,59.04
2023-07-31T20:16:19.010Z,59.45
2023-07-31T20:21:20.470Z,59.34
2023-07-31T20:26:21.996Z,59.11
2023-07-31T20:31:23.576Z,59.54
2023-07-31T20:36:25.115Z,60.10
2023-07-31T20:41:26.577Z,60.07
2023-07-31T20:46:28.032Z,59.67
2023-07-31T20:51:29.548Z,59.86
2023-07-31T20:56:31.030Z,59.95
2023-07-31T21:01:32.579Z,60.27
2023-07-31T21:06:34.158Z,60.40
2023-07-31T21:11:35.663Z,60.34
2023-07-31T21:16:37.419Z,60.19
2023-07-31T21:21:39.062Z,60.13
2023-07-31T21:26:40.705Z,60.04
2023-07-31T21:31:42.406Z,60.11
2023-07-31T21:36:43.921Z,60.23
2023-07-31T21:41:45.405Z,60.38
2023-07-31T21:46:47.079Z,61.32
2023-07-31T21:51:48.564Z,61.25
2023-07-31T21:56:50.049Z,61.51
2023-07-31T22:01:51.508Z,61.55
2023-07-31T22:06:53.088Z,61.29
2023-07-31T22:11:54.581Z,61.44
2023-07-31T22:16:56.087Z,61.27
2023-07-31T22:21:58.024Z,61.40
2023-07-31T22:26:59.494Z,61.39
2023-07-31T22:32:00.924Z,61.79
2023-07-31T22:37:02.385Z,61.34
2023-07-31T22:42:04.045Z,61.65
2023-07-31T22:47:05.917Z,61.30
2023-07-31T22:52:07.735Z,60.99
2023-07-31T22:57:09.216Z,61.64
2023-07-31T23:02:10.720Z,61.59
2023-07-31T23:07:12.179Z,62.17
2023-07-31T23:12:13.633Z,62.18
2023-07-31T23:17:15.302Z,62.06
2023-07-31T23:22:16.885Z,62.15
2023-07-31T23:27:18.333Z,62.46
2023-07-31T23:32:20.550Z,62.42
2023-07-31T23:37:22.070Z,62.37
2023-07-31T23:42:25.486Z,62.18
2023-07-31T23:47:26.994Z,62.50
2023-07-31T23:52:28.558Z,62.54
2023-07-31T23:57:30.519Z,62.73
